createdAt,value
2019-01-12T00:00:48.074Z,36.47
2019-01-12T00:03:13.983Z,34.10
2019-01-12T00:05:39.893Z,32.43
2019-01-12T00:08:05.762Z,30.57
2019-01-12T00:10:31.669Z,28.80
2019-01-12T00:12:57.585Z,26.57
2019-01-12T00:15:23.440Z,28.07
2019-01-12T00:17:49.340Z,40.07
2019-01-12T00:20:15.237Z,30.03
2019-01-12T00:22:41.153Z,30.40
2019-01-12T00:25:07.023Z,39.87
2019-01-12T00:27:32.891Z,40.20
2019-01-12T00:29:58.839Z,31.83
2019-01-12T00:32:24.752Z,28.97
2019-01-12T00:34:50.639Z,27.07
2019-01-12T00:37:16.537Z,33.17
2019-01-12T00:39:42.451Z,33.57
2019-01-12T00:42:08.321Z,36.47
2019-01-12T00:44:34.224Z,39.93
2019-01-12T00:47:00.138Z,30.63
2019-01-12T00:49:26.007Z,36.63
2019-01-12T00:51:51.896Z,32.73
2019-01-12T00:54:17.833Z,29.37
2019-01-12T00:56:43.732Z,28.10
2019-01-12T00:59:09.682Z,30.30
2019-01-12T01:01:35.588Z,38.43
2019-01-12T01:04:01.529Z,39.63
2019-01-12T01:06:27.410Z,36.40
2019-01-12T01:08:53.307Z,30.07
2019-01-12T01:11:19.200Z,32.47
2019-01-12T01:13:45.062Z,32.37
2019-01-12T01:16:10.984Z,30.67
2019-01-12T01:18:36.842Z,31.43
2019-01-12T01:21:02.748Z,35.50
2019-01-12T01:23:28.645Z,33.73
2019-01-12T01:25:54.553Z,27.53
2019-01-12T01:28:20.425Z,37.40
2019-01-12T01:30:46.339Z,29.17
2019-01-12T01:33:12.223Z,38.17
2019-01-12T01:35:38.103Z,31.20
2019-01-12T01:38:04.008Z,27.80
2019-01-12T01:40:29.949Z,29.87
2019-01-12T01:42:55.805Z,28.40
2019-01-12T01:45:21.669Z,25.80
2019-01-12T01:47:47.543Z,24.50
2019-01-12T01:50:55.089Z,31.03
2019-01-12T01:53:21.041Z,32.20
2019-01-12T01:55:46.923Z,33.07
2019-01-12T01:58:12.857Z,29.07
2019-01-12T02:00:38.771Z,30.77
2019-01-12T02:03:04.641Z,32.20
2019-01-12T02:05:30.559Z,30.13
2019-01-12T02:07:56.441Z,27.20
2019-01-12T02:10:22.344Z,28.57
2019-01-12T02:12:48.213Z,28.73
2019-01-12T02:15:55.736Z,25.63
2019-01-12T02:18:21.668Z,30.87
2019-01-12T02:20:47.556Z,26.67
2019-01-12T02:23:13.438Z,31.07
2019-01-12T02:25:39.345Z,27.93
2019-01-12T02:28:05.226Z,25.37
2019-01-12T02:30:31.154Z,24.60
2019-01-12T02:32:57.057Z,19.23
2019-01-12T02:35:22.919Z,23.63
2019-01-12T02:37:48.877Z,21.17
2019-01-12T02:40:14.736Z,23.33
2019-01-12T02:42:40.646Z,24.37
2019-01-12T02:48:06.931Z,17.80
2019-01-12T02:50:32.840Z,22.87
2019-01-12T02:52:58.704Z,22.17
2019-01-12T02:55:24.572Z,23.23
2019-01-12T02:57:50.492Z,25.60
2019-01-12T03:00:16.362Z,30.73
2019-01-12T03:02:42.237Z,18.17
2019-01-12T03:05:08.150Z,21.33
2019-01-12T03:07:34.025Z,22.27
2019-01-12T03:09:59.914Z,23.90
2019-01-12T03:12:25.763Z,29.17
2019-01-12T03:14:51.669Z,20.77
2019-01-12T03:17:17.539Z,20.30
2019-01-12T03:19:43.438Z,24.83
2019-01-12T03:22:09.309Z,26.27
2019-01-12T03:24:35.214Z,27.00
2019-01-12T03:27:01.104Z,19.57
2019-01-12T03:29:27.012Z,26.97
2019-01-12T03:31:53.117Z,22.37
2019-01-12T03:37:08.145Z,25.87
2019-01-12T03:39:34.021Z,21.67
2019-01-12T03:41:59.913Z,15.13
2019-01-12T03:44:25.786Z,23.67
2019-01-12T03:46:51.738Z,20.60
2019-01-12T03:49:17.551Z,21.37
2019-01-12T03:51:43.463Z,15.13
2019-01-12T03:54:09.332Z,15.70
2019-01-12T03:56:35.240Z,18.60
2019-01-12T03:59:01.129Z,19.17
2019-01-12T04:01:27.061Z,18.47
2019-01-12T04:03:52.974Z,14.67
2019-01-12T04:06:18.948Z,14.60
2019-01-12T04:08:44.848Z,14.53
2019-01-12T04:11:10.723Z,16.33
2019-01-12T04:13:36.624Z,16.53
2019-01-12T04:16:02.502Z,16.70
2019-01-12T04:18:28.397Z,12.30
2019-01-12T04:20:54.286Z,14.63
2019-01-12T04:23:20.185Z,13.30
2019-01-12T04:25:46.046Z,9.70
2019-01-12T04:28:11.960Z,12.90
2019-01-12T04:30:37.905Z,10.20
2019-01-12T04:33:03.817Z,9.30
2019-01-12T04:35:29.724Z,11.20
2019-01-12T04:37:55.592Z,9.23
2019-01-12T04:40:21.500Z,10.40
2019-01-12T04:42:47.377Z,7.97
2019-01-12T04:48:06.546Z,10.37
2019-01-12T04:50:32.441Z,8.40
2019-01-12T04:52:58.371Z,7.57
2019-01-12T04:55:44.149Z,5.57
2019-01-12T04:58:10.082Z,13.70
2019-01-12T05:00:36.021Z,8.90
2019-01-12T05:03:01.898Z,9.97
2019-01-12T05:05:27.757Z,8.80
2019-01-12T05:07:53.662Z,9.60
2019-01-12T05:10:19.524Z,8.80
2019-01-12T05:12:45.436Z,12.27
2019-01-12T05:18:24.689Z,13.60
2019-01-12T05:20:50.636Z,10.47
2019-01-12T05:23:16.527Z,13.43
2019-01-12T05:25:48.944Z,15.50
2019-01-12T05:28:10.309Z,12.23
2019-01-12T05:30:36.211Z,12.00
2019-01-12T05:33:02.093Z,10.00
2019-01-12T05:35:27.996Z,9.23
2019-01-12T05:37:53.860Z,9.47
2019-01-12T05:40:19.767Z,10.27
2019-01-12T05:42:45.634Z,8.10
2019-01-12T05:45:53.184Z,10.93
2019-01-12T05:48:19.094Z,9.00
2019-01-12T05:50:45.023Z,10.47
2019-01-12T05:53:10.888Z,7.70
2019-01-12T05:55:36.817Z,8.57
2019-01-12T05:58:02.680Z,7.60
2019-01-12T06:00:28.622Z,8.53
2019-01-12T06:02:54.532Z,8.00
2019-01-12T06:05:20.400Z,9.50
2019-01-12T06:07:46.302Z,10.13
2019-01-12T06:10:12.284Z,7.80
2019-01-12T06:12:38.175Z,7.93
2019-01-12T06:18:17.315Z,8.30
2019-01-12T06:20:43.190Z,8.60
2019-01-12T06:23:09.055Z,8.33
2019-01-12T06:25:34.955Z,7.87
2019-01-12T06:28:00.837Z,9.93
2019-01-12T06:30:26.737Z,8.17
2019-01-12T06:32:52.619Z,8.03
2019-01-12T06:35:18.531Z,7.37
2019-01-12T06:37:44.414Z,7.40
2019-01-12T06:40:51.949Z,7.73
2019-01-12T06:43:17.870Z,6.27
2019-01-12T06:45:43.769Z,5.60
2019-01-12T06:48:09.639Z,5.80
2019-01-12T06:50:35.541Z,6.40
2019-01-12T06:53:01.421Z,7.57
2019-01-12T06:55:27.303Z,10.27
2019-01-12T06:57:53.198Z,7.37
2019-01-12T07:00:19.074Z,8.37
2019-01-12T07:02:44.984Z,7.67
2019-01-12T07:05:10.965Z,6.10
2019-01-12T07:07:36.861Z,6.03
2019-01-12T07:13:16.402Z,5.70
2019-01-12T07:15:42.275Z,7.43
2019-01-12T07:18:08.994Z,6.73
2019-01-12T07:20:36.012Z,5.60
2019-01-12T07:23:01.933Z,6.13
2019-01-12T07:25:27.804Z,4.23
2019-01-12T07:27:53.711Z,7.83
2019-01-12T07:31:01.258Z,6.23
2019-01-12T07:33:27.176Z,5.33
2019-01-12T07:35:53.073Z,5.17
2019-01-12T07:38:18.952Z,5.23
2019-01-12T07:40:44.870Z,7.17
2019-01-12T07:43:10.754Z,6.03
2019-01-12T07:45:36.618Z,7.00
2019-01-12T07:48:02.543Z,6.63
2019-01-12T07:50:28.408Z,5.67
2019-01-12T07:52:54.319Z,5.50
2019-01-12T07:55:20.210Z,5.27
2019-01-12T07:57:46.083Z,6.53
2019-01-12T08:00:53.617Z,5.23
2019-01-12T08:03:19.565Z,6.63
2019-01-12T08:05:45.473Z,4.80
2019-01-12T08:08:11.397Z,5.10
2019-01-12T08:10:37.294Z,4.67
2019-01-12T08:13:03.161Z,6.60
2019-01-12T08:15:29.076Z,9.10
2019-01-12T08:17:54.942Z,5.53
2019-01-12T08:20:20.847Z,5.90
2019-01-12T08:22:46.767Z,6.80
2019-01-12T08:25:12.684Z,5.97
2019-01-12T08:27:38.549Z,5.33
2019-01-12T08:30:24.342Z,5.80
2019-01-12T08:32:50.248Z,8.73
2019-01-12T08:35:16.123Z,4.50
2019-01-12T08:37:42.038Z,7.47
2019-01-12T08:40:49.574Z,6.77
2019-01-12T08:43:15.480Z,7.23
2019-01-12T08:45:41.410Z,4.73
2019-01-12T08:48:07.271Z,5.30
2019-01-12T08:50:33.143Z,7.27
2019-01-12T08:52:59.165Z,4.23
2019-01-12T08:55:25.081Z,5.43
2019-01-12T08:57:51.005Z,3.60
2019-01-12T09:00:58.533Z,4.53
2019-01-12T09:03:24.411Z,4.83
2019-01-12T09:05:50.341Z,3.67
2019-01-12T09:08:16.221Z,5.33
2019-01-12T09:10:42.099Z,5.90
2019-01-12T09:13:08.019Z,4.37
2019-01-12T09:15:33.903Z,5.57
2019-01-12T09:17:59.813Z,5.30
2019-01-12T09:20:25.722Z,3.70
2019-01-12T09:22:51.589Z,3.63
2019-01-12T09:25:17.513Z,4.97
2019-01-12T09:27:43.385Z,3.93
2019-01-12T09:30:50.903Z,3.80
2019-01-12T09:33:16.890Z,5.80
2019-01-12T09:35:42.787Z,4.67
2019-01-12T09:38:08.663Z,4.67
2019-01-12T09:40:34.570Z,5.57
2019-01-12T09:43:00.498Z,3.37
2019-01-12T09:45:26.378Z,4.37
2019-01-12T09:47:52.288Z,4.50
2019-01-12T09:50:59.792Z,4.33
2019-01-12T09:53:25.742Z,3.60
2019-01-12T09:55:51.604Z,3.87
2019-01-12T09:58:17.547Z,4.10
2019-01-12T10:00:43.460Z,4.60
2019-01-12T10:03:09.390Z,6.40
2019-01-12T10:05:35.252Z,4.80
2019-01-12T10:08:01.180Z,6.30
2019-01-12T10:10:27.098Z,5.50
2019-01-12T10:12:53.012Z,5.77
2019-01-12T10:15:18.954Z,7.37
2019-01-12T10:17:44.849Z,7.77
2019-01-12T10:20:52.406Z,5.87
2019-01-12T10:23:18.318Z,6.27
2019-01-12T10:25:44.236Z,5.97
2019-01-12T10:28:10.146Z,6.13
2019-01-12T10:30:36.066Z,6.07
2019-01-12T10:33:01.976Z,6.07
2019-01-12T10:35:27.904Z,6.77
2019-01-12T10:37:53.773Z,7.40
2019-01-12T10:40:20.011Z,8.63
2019-01-12T10:46:00.117Z,6.10
2019-01-12T10:48:25.996Z,6.67
2019-01-12T10:50:51.916Z,6.77
2019-01-12T10:53:17.813Z,7.17
2019-01-12T10:55:43.737Z,6.60
2019-01-12T10:58:09.648Z,7.40
2019-01-12T11:00:35.525Z,6.77
2019-01-12T11:03:01.434Z,7.40
2019-01-12T11:05:27.312Z,9.53
2019-01-12T11:07:53.215Z,6.93
2019-01-12T11:10:19.088Z,7.17
2019-01-12T11:12:45.013Z,7.10
2019-01-12T11:15:30.776Z,7.27
2019-01-12T11:17:56.683Z,7.57
2019-01-12T11:20:22.591Z,7.57
2019-01-12T11:22:48.473Z,7.53
2019-01-12T11:25:55.998Z,7.93
2019-01-12T11:28:21.963Z,9.13
2019-01-12T11:30:47.812Z,9.20
2019-01-12T11:33:13.739Z,7.50
2019-01-12T11:35:39.666Z,8.43
2019-01-12T11:38:05.586Z,7.97
2019-01-12T11:40:31.503Z,8.03
2019-01-12T11:42:57.557Z,8.33
2019-01-12T11:45:23.462Z,8.40
2019-01-12T11:51:23.332Z,9.13
2019-01-12T11:53:49.281Z,9.03
2019-01-12T11:56:15.174Z,9.17
2019-01-12T11:58:41.099Z,8.80
2019-01-12T12:01:07.030Z,11.80
2019-01-12T12:03:32.937Z,10.50
2019-01-12T12:05:58.863Z,9.90
2019-01-12T12:08:24.751Z,9.07
2019-01-12T12:10:50.616Z,9.13
2019-01-12T12:13:16.536Z,8.70
2019-01-12T12:15:42.404Z,9.23
2019-01-12T12:18:08.325Z,9.60
2019-01-12T12:20:34.301Z,9.60
2019-01-12T12:23:00.201Z,11.53
2019-01-12T12:25:26.153Z,11.27
2019-01-12T12:27:52.029Z,11.10
2019-01-12T12:30:59.553Z,10.90
2019-01-12T12:33:25.541Z,11.57
2019-01-12T12:35:51.422Z,11.67
2019-01-12T12:38:17.325Z,11.87
2019-01-12T12:40:43.200Z,12.20
2019-01-12T12:43:09.064Z,12.20
2019-01-12T12:45:35.006Z,11.93
2019-01-12T12:48:00.854Z,13.40
2019-01-12T12:50:26.731Z,13.43
2019-01-12T12:52:52.646Z,12.27
2019-01-12T12:55:18.515Z,13.67
2019-01-12T12:57:44.430Z,13.57
2019-01-12T13:00:51.988Z,13.40
2019-01-12T13:03:17.902Z,13.17
2019-01-12T13:05:43.793Z,13.20
2019-01-12T13:08:09.702Z,12.57
2019-01-12T13:10:35.578Z,14.23
2019-01-12T13:13:01.489Z,12.10
2019-01-12T13:15:27.351Z,12.77
2019-01-12T13:17:53.259Z,12.83
2019-01-12T13:20:20.589Z,12.63
2019-01-12T13:22:46.994Z,12.33
2019-01-12T13:28:07.342Z,13.37
2019-01-12T13:30:33.211Z,13.37
2019-01-12T13:32:59.093Z,13.70
2019-01-12T13:35:25.017Z,12.50
2019-01-12T13:37:50.879Z,13.23
2019-01-12T13:40:58.410Z,13.17
2019-01-12T13:43:24.355Z,13.97
2019-01-12T13:45:50.239Z,13.53
2019-01-12T13:48:16.118Z,13.27
2019-01-12T13:50:42.047Z,12.70
2019-01-12T13:53:07.918Z,12.90
2019-01-12T13:55:33.827Z,13.07
2019-01-12T13:57:59.699Z,12.70
2019-01-12T14:01:07.232Z,13.13
2019-01-12T14:03:33.156Z,12.57
2019-01-12T14:05:59.071Z,13.50
2019-01-12T14:08:24.945Z,13.53
2019-01-12T14:10:50.850Z,14.20
2019-01-12T14:13:16.737Z,13.53
2019-01-12T14:15:42.644Z,13.33
2019-01-12T14:18:08.571Z,13.57
2019-01-12T14:20:34.670Z,13.27
2019-01-12T14:23:07.339Z,13.00
2019-01-12T14:25:33.248Z,12.50
2019-01-12T14:27:59.133Z,12.80
2019-01-12T14:30:25.052Z,11.47
2019-01-12T14:32:50.930Z,12.63
2019-01-12T14:35:58.465Z,11.03
2019-01-12T14:38:24.384Z,11.70
2019-01-12T14:40:50.282Z,12.10
2019-01-12T14:43:16.166Z,10.50
2019-01-12T14:45:42.071Z,12.20
2019-01-12T14:48:07.953Z,11.27
2019-01-12T14:50:33.877Z,11.73
2019-01-12T14:52:59.742Z,11.53
2019-01-12T14:55:25.729Z,10.73
2019-01-12T14:57:51.636Z,10.90
2019-01-12T15:00:59.193Z,10.70
2019-01-12T15:03:25.103Z,10.73
2019-01-12T15:05:51.000Z,10.77
2019-01-12T15:08:16.907Z,10.90
2019-01-12T15:10:42.818Z,11.13
2019-01-12T15:13:08.756Z,10.80
2019-01-12T15:15:34.642Z,10.10
2019-01-12T15:18:00.599Z,9.70
2019-01-12T15:23:39.869Z,9.77
2019-01-12T15:26:05.760Z,9.60
2019-01-12T15:28:31.674Z,9.63
2019-01-12T15:30:57.580Z,9.57
2019-01-12T15:33:23.456Z,8.47
2019-01-12T15:35:49.505Z,8.77
2019-01-12T15:38:15.393Z,8.60
2019-01-12T15:40:41.297Z,9.73
2019-01-12T15:43:07.160Z,8.40
2019-01-12T15:45:33.072Z,9.07
2019-01-12T15:47:58.950Z,8.50
2019-01-12T15:51:06.506Z,8.17
2019-01-12T15:53:32.466Z,7.97
2019-01-12T15:55:58.343Z,7.90
2019-01-12T15:58:24.216Z,9.13
2019-01-12T16:00:50.114Z,9.37
2019-01-12T16:03:16.038Z,10.00
2019-01-12T16:05:41.957Z,9.77
2019-01-12T16:08:07.846Z,9.50
2019-01-12T16:10:33.763Z,9.23
2019-01-12T16:12:59.624Z,10.33
2019-01-12T16:15:25.554Z,10.87
2019-01-12T16:17:51.415Z,8.87
2019-01-12T16:20:58.976Z,9.20
2019-01-12T16:23:24.889Z,8.30
2019-01-12T16:25:50.806Z,8.90
2019-01-12T16:28:23.005Z,8.23
2019-01-12T16:30:44.506Z,7.97
2019-01-12T16:33:10.424Z,7.13
2019-01-12T16:35:36.328Z,6.57
2019-01-12T16:38:02.253Z,7.13
2019-01-12T16:40:28.116Z,6.40
2019-01-12T16:42:54.028Z,7.07
2019-01-12T16:45:19.895Z,7.17
2019-01-12T16:47:45.810Z,6.93
2019-01-12T16:50:11.677Z,7.53
2019-01-12T16:52:37.575Z,7.37
2019-01-12T16:58:17.410Z,8.50
2019-01-12T17:00:43.314Z,6.53
2019-01-12T17:03:09.267Z,6.43
2019-01-12T17:05:35.161Z,7.03
2019-01-12T17:08:01.078Z,7.17
2019-01-12T17:13:14.424Z,7.57
2019-01-12T17:15:40.330Z,7.93
2019-01-12T17:18:06.204Z,7.20
2019-01-12T17:20:32.113Z,8.23
2019-01-12T17:22:58.096Z,8.10
2019-01-12T17:25:24.004Z,7.57
2019-01-12T17:27:49.925Z,7.40
2019-01-12T17:30:57.477Z,7.83
2019-01-12T17:33:23.360Z,7.80
2019-01-12T17:35:49.281Z,8.33
2019-01-12T17:38:15.142Z,8.07
2019-01-12T17:40:41.076Z,6.70
2019-01-12T17:43:06.946Z,7.43
2019-01-12T17:45:32.824Z,7.70
2019-01-12T17:47:58.741Z,7.40
2019-01-12T17:50:24.821Z,8.67
2019-01-12T17:52:50.740Z,7.20
2019-01-12T17:58:30.313Z,6.93
2019-01-12T18:00:56.284Z,7.10
2019-01-12T18:03:22.192Z,7.83
2019-01-12T18:05:48.071Z,8.33
2019-01-12T18:08:13.980Z,7.33
2019-01-12T18:10:39.864Z,8.87
2019-01-12T18:13:05.763Z,7.17
2019-01-12T18:15:31.658Z,6.37
2019-01-12T18:17:57.557Z,6.73
2019-01-12T18:20:23.433Z,8.37
2019-01-12T18:22:49.341Z,7.27
2019-01-12T18:25:35.103Z,8.93
2019-01-12T18:28:01.026Z,11.90
2019-01-12T18:30:26.945Z,10.20
2019-01-12T18:32:52.851Z,12.23
2019-01-12T18:35:18.805Z,10.17
2019-01-12T18:37:44.805Z,7.40
2019-01-12T18:40:30.559Z,10.10
2019-01-12T18:42:56.515Z,10.27
2019-01-12T18:45:22.432Z,6.87
2019-01-12T18:47:48.317Z,5.77
2019-01-12T18:50:34.130Z,9.33
2019-01-12T18:53:00.066Z,6.37
2019-01-12T18:55:25.939Z,11.57
2019-01-12T18:57:51.845Z,7.57
2019-01-12T19:00:37.614Z,8.67
2019-01-12T19:03:03.562Z,8.97
2019-01-12T19:05:29.428Z,7.57
2019-01-12T19:07:55.324Z,7.97
2019-01-12T19:10:21.214Z,8.43
2019-01-12T19:12:47.125Z,8.67
2019-01-12T19:15:32.923Z,12.30
2019-01-12T19:17:58.846Z,9.40
2019-01-12T19:20:24.727Z,8.43
2019-01-12T19:22:50.747Z,7.40
2019-01-12T19:25:16.600Z,11.00
2019-01-12T19:27:42.525Z,14.33
2019-01-12T19:33:21.983Z,8.67
2019-01-12T19:35:47.898Z,10.33
2019-01-12T19:38:13.769Z,8.47
2019-01-12T19:40:39.695Z,10.97
2019-01-12T19:43:05.575Z,8.00
2019-01-12T19:45:31.485Z,7.50
2019-01-12T19:47:57.367Z,13.53
2019-01-12T19:50:23.378Z,8.80
2019-01-12T19:52:49.249Z,8.13
2019-01-12T19:55:15.175Z,7.93
2019-01-12T19:57:41.052Z,10.97
2019-01-12T20:00:48.596Z,10.50
2019-01-12T20:03:14.617Z,13.10
2019-01-12T20:05:40.549Z,22.40
2019-01-12T20:08:06.418Z,8.43
2019-01-12T20:10:32.331Z,9.27
2019-01-12T20:12:58.248Z,8.30
2019-01-12T20:15:44.024Z,8.07
2019-01-12T20:18:09.942Z,9.67
2019-01-12T20:20:35.854Z,9.20
2019-01-12T20:23:01.734Z,5.50
2019-01-12T20:25:27.658Z,8.97
2019-01-12T20:27:53.646Z,4.70
2019-01-12T20:31:01.194Z,6.50
2019-01-12T20:37:07.947Z,6.50
2019-01-12T20:40:13.667Z,8.30
2019-01-12T20:43:19.340Z,7.23
2019-01-12T20:46:25.175Z,4.73
2019-01-12T20:49:32.762Z,6.13
2019-01-12T20:52:38.450Z,5.50
2019-01-12T20:55:44.147Z,5.83
2019-01-12T20:58:51.734Z,7.97
2019-01-12T21:04:58.613Z,8.00
2019-01-12T21:11:05.015Z,11.50
2019-01-12T21:14:12.592Z,7.20
2019-01-12T21:16:38.605Z,11.07
2019-01-12T21:19:04.535Z,8.30
2019-01-12T21:21:30.445Z,8.80
2019-01-12T21:23:56.329Z,9.63
2019-01-12T21:26:22.249Z,13.20
2019-01-12T21:28:48.142Z,10.50
2019-01-12T21:31:14.059Z,9.77
2019-01-12T21:33:39.914Z,7.73
2019-01-12T21:36:05.844Z,8.10
2019-01-12T21:38:31.721Z,7.33
2019-01-12T21:40:57.608Z,5.70
2019-01-12T21:43:23.535Z,11.10
2019-01-12T21:45:49.504Z,11.93
2019-01-12T21:48:15.384Z,8.20
2019-01-12T21:50:41.264Z,7.10
2019-01-12T21:53:07.164Z,5.57
2019-01-12T21:55:33.057Z,7.93
2019-01-12T21:57:58.975Z,5.20
2019-01-12T22:00:24.874Z,6.67
2019-01-12T22:02:50.798Z,8.57
2019-01-12T22:05:16.672Z,9.70
2019-01-12T22:07:42.583Z,5.93
2019-01-12T22:10:28.368Z,5.60
2019-01-12T22:12:54.307Z,8.93
2019-01-12T22:15:20.230Z,5.20
2019-01-12T22:17:46.102Z,7.43
2019-01-12T22:20:53.641Z,6.27
2019-01-12T22:23:19.594Z,12.13
2019-01-12T22:25:45.475Z,8.70
2019-01-12T22:28:11.423Z,7.00
2019-01-12T22:30:37.349Z,12.13
2019-01-12T22:33:03.226Z,11.03
2019-01-12T22:35:29.127Z,9.73
2019-01-12T22:37:55.028Z,11.10
2019-01-12T22:40:20.944Z,9.00
2019-01-12T22:42:46.808Z,10.30
2019-01-12T22:45:12.743Z,12.53
2019-01-12T22:47:38.627Z,9.13
2019-01-12T22:50:46.171Z,10.90
2019-01-12T22:53:12.074Z,12.00
2019-01-12T22:55:37.995Z,10.27
2019-01-12T22:58:03.863Z,11.23
2019-01-12T23:01:11.454Z,9.10
2019-01-12T23:03:59.118Z,8.30
2019-01-12T23:06:25.072Z,10.17
2019-01-12T23:08:50.963Z,13.13
2019-01-12T23:11:16.853Z,13.40
2019-01-12T23:13:42.746Z,9.13
2019-01-12T23:16:08.621Z,12.13
2019-01-12T23:18:34.538Z,10.43
2019-01-12T23:21:00.424Z,11.97
2019-01-12T23:23:26.332Z,14.40
2019-01-12T23:25:52.219Z,13.30
2019-01-12T23:28:18.111Z,11.07
2019-01-12T23:30:43.992Z,13.87
2019-01-12T23:33:09.914Z,9.13
2019-01-12T23:35:35.859Z,9.87
2019-01-12T23:38:01.772Z,10.23
2019-01-12T23:40:27.673Z,15.93
2019-01-12T23:42:53.570Z,9.63
2019-01-12T23:45:19.468Z,13.03
2019-01-12T23:48:05.228Z,14.23
2019-01-12T23:50:31.210Z,9.63
2019-01-12T23:52:57.080Z,12.63
2019-01-12T23:55:22.955Z,11.87
2019-01-12T23:57:48.852Z,10.37
